sensor_id;sensor_type;location;lat;lon;timestamp;P1;durP1;ratioP1;P2;durP2;ratioP2
22334;SDS011;11335;43.848;25.958;2023-06-24T00:02:11;11.88;;;7.47;;
22334;SDS011;11335;43.848;25.958;2023-06-24T00:04:57;9.73;;;7.45;;
22334;SDS011;11335;43.848;25.958;2023-06-24T00:07:45;9.88;;;7.18;;
22334;SDS011;11335;43.848;25.958;2023-06-24T00:10:31;9.88;;;7.93;;
22334;SDS011;11335;43.848;25.958;2023-06-24T00:13:17;9.32;;;7.10;;
22334;SDS011;11335;43.848;25.958;2023-06-24T00:16:03;7.90;;;7.10;;
22334;SDS011;11335;43.848;25.958;2023-06-24T00:18:49;8.25;;;7.35;;
22334;SDS011;11335;43.848;25.958;2023-06-24T00:21:34;8.38;;;7.40;;
22334;SDS011;11335;43.848;25.958;2023-06-24T00:24:22;8.77;;;7.72;;
22334;SDS011;11335;43.848;25.958;2023-06-24T00:27:10;14.68;;;7.32;;
22334;SDS011;11335;43.848;25.958;2023-06-24T00:29:56;9.65;;;7.03;;
22334;SDS011;11335;43.848;25.958;2023-06-24T00:32:42;10.43;;;7.32;;
22334;SDS011;11335;43.848;25.958;2023-06-24T00:35:28;11.65;;;7.60;;
22334;SDS011;11335;43.848;25.958;2023-06-24T00:38:14;9.13;;;7.72;;
22334;SDS011;11335;43.848;25.958;2023-06-24T00:40:59;10.25;;;7.22;;
22334;SDS011;11335;43.848;25.958;2023-06-24T00:43:45;9.80;;;7.53;;
22334;SDS011;11335;43.848;25.958;2023-06-24T00:46:31;8.35;;;7.03;;
22334;SDS011;11335;43.848;25.958;2023-06-24T00:49:18;8.98;;;7.32;;
22334;SDS011;11335;43.848;25.958;2023-06-24T00:52:04;11.52;;;7.60;;
22334;SDS011;11335;43.848;25.958;2023-06-24T00:54:50;8.55;;;7.10;;
22334;SDS011;11335;43.848;25.958;2023-06-24T00:57:36;8.23;;;7.20;;
22334;SDS011;11335;43.848;25.958;2023-06-24T01:00:22;7.90;;;7.10;;
22334;SDS011;11335;43.848;25.958;2023-06-24T01:03:09;9.02;;;7.50;;
22334;SDS011;11335;43.848;25.958;2023-06-24T01:05:59;8.52;;;7.63;;
22334;SDS011;11335;43.848;25.958;2023-06-24T01:08:45;10.43;;;7.28;;
22334;SDS011;11335;43.848;25.958;2023-06-24T01:11:36;7.63;;;6.82;;
22334;SDS011;11335;43.848;25.958;2023-06-24T01:14:22;11.13;;;7.40;;
22334;SDS011;11335;43.848;25.958;2023-06-24T01:17:11;7.90;;;6.90;;
22334;SDS011;11335;43.848;25.958;2023-06-24T01:20:08;8.65;;;7.00;;
22334;SDS011;11335;43.848;25.958;2023-06-24T01:35:02;10.82;;;7.10;;
22334;SDS011;11335;43.848;25.958;2023-06-24T01:38:22;8.57;;;7.25;;
22334;SDS011;11335;43.848;25.958;2023-06-24T01:41:24;9.27;;;6.80;;
22334;SDS011;11335;43.848;25.958;2023-06-24T01:44:16;9.00;;;7.07;;
22334;SDS011;11335;43.848;25.958;2023-06-24T01:47:04;8.32;;;6.88;;
22334;SDS011;11335;43.848;25.958;2023-06-24T01:49:52;9.10;;;7.68;;
22334;SDS011;11335;43.848;25.958;2023-06-24T01:52:41;7.45;;;6.60;;
22334;SDS011;11335;43.848;25.958;2023-06-24T01:55:29;8.30;;;6.85;;
22334;SDS011;11335;43.848;25.958;2023-06-24T01:58:17;7.82;;;6.85;;
22334;SDS011;11335;43.848;25.958;2023-06-24T02:01:04;9.25;;;7.07;;
22334;SDS011;11335;43.848;25.958;2023-06-24T02:03:51;10.48;;;7.60;;
22334;SDS011;11335;43.848;25.958;2023-06-24T02:06:39;8.48;;;6.95;;
22334;SDS011;11335;43.848;25.958;2023-06-24T02:09:26;7.88;;;7.07;;
22334;SDS011;11335;43.848;25.958;2023-06-24T02:12:14;9.52;;;6.75;;
22334;SDS011;11335;43.848;25.958;2023-06-24T02:15:01;7.68;;;6.57;;
22334;SDS011;11335;43.848;25.958;2023-06-24T02:17:50;8.32;;;6.53;;
22334;SDS011;11335;43.848;25.958;2023-06-24T02:20:41;10.20;;;6.97;;
22334;SDS011;11335;43.848;25.958;2023-06-24T02:23:29;7.93;;;6.95;;
22334;SDS011;11335;43.848;25.958;2023-06-24T02:26:16;11.60;;;7.63;;
22334;SDS011;11335;43.848;25.958;2023-06-24T02:29:03;9.68;;;7.40;;
22334;SDS011;11335;43.848;25.958;2023-06-24T02:31:49;11.15;;;8.02;;
22334;SDS011;11335;43.848;25.958;2023-06-24T02:34:35;10.73;;;8.50;;
22334;SDS011;11335;43.848;25.958;2023-06-24T02:37:21;13.82;;;8.30;;
22334;SDS011;11335;43.848;25.958;2023-06-24T02:40:07;9.52;;;7.57;;
22334;SDS011;11335;43.848;25.958;2023-06-24T02:42:53;9.25;;;8.20;;
22334;SDS011;11335;43.848;25.958;2023-06-24T02:45:39;11.68;;;7.65;;
22334;SDS011;11335;43.848;25.958;2023-06-24T02:48:25;12.25;;;8.63;;
22334;SDS011;11335;43.848;25.958;2023-06-24T02:51:11;11.35;;;8.80;;
22334;SDS011;11335;43.848;25.958;2023-06-24T02:53:57;10.00;;;8.35;;
22334;SDS011;11335;43.848;25.958;2023-06-24T02:56:43;9.10;;;8.18;;
22334;SDS011;11335;43.848;25.958;2023-06-24T02:59:29;9.65;;;8.32;;
22334;SDS011;11335;43.848;25.958;2023-06-24T03:02:15;10.57;;;8.20;;
22334;SDS011;11335;43.848;25.958;2023-06-24T03:05:01;13.93;;;8.32;;
22334;SDS011;11335;43.848;25.958;2023-06-24T03:07:48;12.95;;;9.02;;
22334;SDS011;11335;43.848;25.958;2023-06-24T03:10:35;10.95;;;8.55;;
22334;SDS011;11335;43.848;25.958;2023-06-24T03:13:22;10.20;;;8.60;;
22334;SDS011;11335;43.848;25.958;2023-06-24T03:16:08;11.00;;;8.57;;
22334;SDS011;11335;43.848;25.958;2023-06-24T03:19:00;13.25;;;8.60;;
22334;SDS011;11335;43.848;25.958;2023-06-24T03:21:46;11.98;;;8.60;;
22334;SDS011;11335;43.848;25.958;2023-06-24T03:24:31;10.57;;;8.35;;
22334;SDS011;11335;43.848;25.958;2023-06-24T03:27:17;9.48;;;8.43;;
22334;SDS011;11335;43.848;25.958;2023-06-24T03:30:03;11.45;;;9.23;;
22334;SDS011;11335;43.848;25.958;2023-06-24T03:32:49;12.07;;;9.05;;
22334;SDS011;11335;43.848;25.958;2023-06-24T03:35:35;13.27;;;9.05;;
22334;SDS011;11335;43.848;25.958;2023-06-24T03:38:21;13.93;;;9.55;;
22334;SDS011;11335;43.848;25.958;2023-06-24T03:41:06;10.18;;;8.30;;
22334;SDS011;11335;43.848;25.958;2023-06-24T03:43:52;12.88;;;9.10;;
22334;SDS011;11335;43.848;25.958;2023-06-24T03:46:38;13.35;;;9.20;;
22334;SDS011;11335;43.848;25.958;2023-06-24T03:49:24;12.45;;;9.05;;
22334;SDS011;11335;43.848;25.958;2023-06-24T03:52:09;10.50;;;8.93;;
22334;SDS011;11335;43.848;25.958;2023-06-24T03:54:55;10.70;;;9.30;;
22334;SDS011;11335;43.848;25.958;2023-06-24T03:57:41;11.20;;;8.70;;
22334;SDS011;11335;43.848;25.958;2023-06-24T04:00:27;13.98;;;8.75;;
22334;SDS011;11335;43.848;25.958;2023-06-24T04:03:13;10.80;;;9.00;;
22334;SDS011;11335;43.848;25.958;2023-06-24T04:05:58;14.20;;;8.20;;
22334;SDS011;11335;43.848;25.958;2023-06-24T04:08:47;12.65;;;9.10;;
22334;SDS011;11335;43.848;25.958;2023-06-24T04:11:34;11.85;;;9.65;;
22334;SDS011;11335;43.848;25.958;2023-06-24T04:14:19;10.80;;;9.40;;
22334;SDS011;11335;43.848;25.958;2023-06-24T04:17:05;14.75;;;9.05;;
22334;SDS011;11335;43.848;25.958;2023-06-24T04:19:51;12.88;;;9.63;;
22334;SDS011;11335;43.848;25.958;2023-06-24T04:22:37;13.05;;;10.00;;
22334;SDS011;11335;43.848;25.958;2023-06-24T04:25:23;15.23;;;10.45;;
22334;SDS011;11335;43.848;25.958;2023-06-24T04:28:09;12.80;;;8.88;;
22334;SDS011;11335;43.848;25.958;2023-06-24T04:30:55;14.93;;;9.52;;
22334;SDS011;11335;43.848;25.958;2023-06-24T04:33:41;12.85;;;9.50;;
22334;SDS011;11335;43.848;25.958;2023-06-24T04:36:27;15.02;;;9.82;;
22334;SDS011;11335;43.848;25.958;2023-06-24T04:39:13;18.45;;;9.25;;
22334;SDS011;11335;43.848;25.958;2023-06-24T04:41:58;15.35;;;8.40;;
22334;SDS011;11335;43.848;25.958;2023-06-24T04:44:44;11.57;;;8.00;;
22334;SDS011;11335;43.848;25.958;2023-06-24T04:47:30;12.95;;;6.90;;
22334;SDS011;11335;43.848;25.958;2023-06-24T04:50:16;9.10;;;7.07;;
22334;SDS011;11335;43.848;25.958;2023-06-24T04:53:02;9.98;;;7.20;;
22334;SDS011;11335;43.848;25.958;2023-06-24T04:55:47;11.00;;;7.13;;
22334;SDS011;11335;43.848;25.958;2023-06-24T04:58:33;11.75;;;7.18;;
22334;SDS011;11335;43.848;25.958;2023-06-24T05:01:19;11.63;;;7.45;;
22334;SDS011;11335;43.848;25.958;2023-06-24T05:04:04;9.15;;;7.35;;
22334;SDS011;11335;43.848;25.958;2023-06-24T05:06:50;12.23;;;7.38;;
22334;SDS011;11335;43.848;25.958;2023-06-24T05:09:36;12.02;;;9.75;;
22334;SDS011;11335;43.848;25.958;2023-06-24T05:12:23;13.85;;;9.50;;
22334;SDS011;11335;43.848;25.958;2023-06-24T05:15:09;10.38;;;9.27;;
22334;SDS011;11335;43.848;25.958;2023-06-24T05:17:55;13.68;;;9.20;;
22334;SDS011;11335;43.848;25.958;2023-06-24T05:20:41;13.98;;;9.50;;
22334;SDS011;11335;43.848;25.958;2023-06-24T05:23:27;12.93;;;9.27;;
22334;SDS011;11335;43.848;25.958;2023-06-24T05:26:13;11.38;;;9.20;;
22334;SDS011;11335;43.848;25.958;2023-06-24T05:28:59;10.65;;;8.55;;
22334;SDS011;11335;43.848;25.958;2023-06-24T05:31:45;12.07;;;8.95;;
22334;SDS011;11335;43.848;25.958;2023-06-24T05:34:31;10.27;;;7.63;;
22334;SDS011;11335;43.848;25.958;2023-06-24T05:37:17;12.77;;;8.90;;
22334;SDS011;11335;43.848;25.958;2023-06-24T05:40:03;12.05;;;8.68;;
22334;SDS011;11335;43.848;25.958;2023-06-24T05:42:50;14.75;;;9.20;;
22334;SDS011;11335;43.848;25.958;2023-06-24T05:45:37;11.13;;;8.98;;
22334;SDS011;11335;43.848;25.958;2023-06-24T05:48:23;16.38;;;8.88;;
22334;SDS011;11335;43.848;25.958;2023-06-24T05:51:08;11.23;;;8.32;;
22334;SDS011;11335;43.848;25.958;2023-06-24T05:53:54;9.88;;;8.23;;
22334;SDS011;11335;43.848;25.958;2023-06-24T05:56:40;11.88;;;8.32;;
22334;SDS011;11335;43.848;25.958;2023-06-24T05:59:26;10.20;;;8.30;;
22334;SDS011;11335;43.848;25.958;2023-06-24T06:02:11;13.85;;;8.88;;
22334;SDS011;11335;43.848;25.958;2023-06-24T06:04:57;15.45;;;9.65;;
22334;SDS011;11335;43.848;25.958;2023-06-24T06:07:43;14.63;;;8.73;;
22334;SDS011;11335;43.848;25.958;2023-06-24T06:10:29;13.60;;;8.95;;
22334;SDS011;11335;43.848;25.958;2023-06-24T06:13:14;11.45;;;8.93;;
22334;SDS011;11335;43.848;25.958;2023-06-24T06:16:00;15.23;;;8.60;;
22334;SDS011;11335;43.848;25.958;2023-06-24T06:18:46;12.15;;;8.93;;
22334;SDS011;11335;43.848;25.958;2023-06-24T06:21:32;9.88;;;8.20;;
22334;SDS011;11335;43.848;25.958;2023-06-24T06:24:17;13.48;;;8.85;;
22334;SDS011;11335;43.848;25.958;2023-06-24T06:27:03;12.93;;;8.63;;
22334;SDS011;11335;43.848;25.958;2023-06-24T06:29:49;10.15;;;8.63;;
22334;SDS011;11335;43.848;25.958;2023-06-24T06:32:35;9.77;;;8.50;;
22334;SDS011;11335;43.848;25.958;2023-06-24T06:35:21;11.02;;;8.85;;
22334;SDS011;11335;43.848;25.958;2023-06-24T06:38:07;11.13;;;9.15;;
22334;SDS011;11335;43.848;25.958;2023-06-24T06:40:52;12.88;;;9.10;;
22334;SDS011;11335;43.848;25.958;2023-06-24T06:43:38;12.63;;;9.02;;
22334;SDS011;11335;43.848;25.958;2023-06-24T06:46:24;16.40;;;8.98;;
22334;SDS011;11335;43.848;25.958;2023-06-24T06:49:09;11.43;;;8.50;;
22334;SDS011;11335;43.848;25.958;2023-06-24T06:51:55;13.32;;;8.65;;
22334;SDS011;11335;43.848;25.958;2023-06-24T06:54:41;10.68;;;8.10;;
22334;SDS011;11335;43.848;25.958;2023-06-24T06:57:27;13.25;;;8.80;;
22334;SDS011;11335;43.848;25.958;2023-06-24T07:00:13;10.55;;;8.95;;
22334;SDS011;11335;43.848;25.958;2023-06-24T07:02:59;11.13;;;8.38;;
22334;SDS011;11335;43.848;25.958;2023-06-24T07:05:44;10.70;;;8.15;;
22334;SDS011;11335;43.848;25.958;2023-06-24T07:08:31;10.40;;;8.32;;
22334;SDS011;11335;43.848;25.958;2023-06-24T07:11:17;10.27;;;8.40;;
22334;SDS011;11335;43.848;25.958;2023-06-24T07:14:03;12.55;;;7.85;;
22334;SDS011;11335;43.848;25.958;2023-06-24T07:16:48;16.65;;;9.10;;
22334;SDS011;11335;43.848;25.958;2023-06-24T07:19:34;14.63;;;8.60;;
22334;SDS011;11335;43.848;25.958;2023-06-24T07:22:20;10.40;;;8.10;;
22334;SDS011;11335;43.848;25.958;2023-06-24T07:25:06;9.48;;;8.48;;
22334;SDS011;11335;43.848;25.958;2023-06-24T07:27:52;14.70;;;8.68;;
22334;SDS011;11335;43.848;25.958;2023-06-24T07:30:37;12.88;;;7.90;;
22334;SDS011;11335;43.848;25.958;2023-06-24T07:33:23;12.85;;;8.48;;
22334;SDS011;11335;43.848;25.958;2023-06-24T07:36:09;12.57;;;8.05;;
22334;SDS011;11335;43.848;25.958;2023-06-24T07:38:55;12.77;;;8.18;;
22334;SDS011;11335;43.848;25.958;2023-06-24T07:41:41;10.43;;;8.15;;
22334;SDS011;11335;43.848;25.958;2023-06-24T07:44:27;15.07;;;9.00;;
22334;SDS011;11335;43.848;25.958;2023-06-24T07:47:13;11.35;;;8.07;;
22334;SDS011;11335;43.848;25.958;2023-06-24T07:50:00;15.25;;;8.25;;
22334;SDS011;11335;43.848;25.958;2023-06-24T07:52:46;11.55;;;8.10;;
22334;SDS011;11335;43.848;25.958;2023-06-24T07:55:32;10.10;;;7.68;;
22334;SDS011;11335;43.848;25.958;2023-06-24T07:58:18;11.48;;;7.63;;
22334;SDS011;11335;43.848;25.958;2023-06-24T08:01:04;14.02;;;7.68;;
22334;SDS011;11335;43.848;25.958;2023-06-24T08:03:51;10.43;;;7.45;;
22334;SDS011;11335;43.848;25.958;2023-06-24T08:06:37;12.60;;;7.80;;
22334;SDS011;11335;43.848;25.958;2023-06-24T08:09:22;14.07;;;7.43;;
22334;SDS011;11335;43.848;25.958;2023-06-24T08:12:08;14.13;;;8.32;;
22334;SDS011;11335;43.848;25.958;2023-06-24T08:14:55;12.98;;;7.00;;
22334;SDS011;11335;43.848;25.958;2023-06-24T08:17:40;8.43;;;7.30;;
22334;SDS011;11335;43.848;25.958;2023-06-24T08:20:26;14.00;;;7.82;;
22334;SDS011;11335;43.848;25.958;2023-06-24T08:23:12;15.82;;;7.50;;
22334;SDS011;11335;43.848;25.958;2023-06-24T08:25:58;9.52;;;6.90;;
22334;SDS011;11335;43.848;25.958;2023-06-24T08:28:43;14.88;;;8.07;;
22334;SDS011;11335;43.848;25.958;2023-06-24T08:31:31;13.10;;;7.40;;
22334;SDS011;11335;43.848;25.958;2023-06-24T08:34:17;10.50;;;8.07;;
22334;SDS011;11335;43.848;25.958;2023-06-24T08:37:03;10.48;;;7.72;;
22334;SDS011;11335;43.848;25.958;2023-06-24T08:39:49;11.57;;;8.05;;
22334;SDS011;11335;43.848;25.958;2023-06-24T08:42:34;8.80;;;7.90;;
22334;SDS011;11335;43.848;25.958;2023-06-24T08:45:20;9.32;;;7.50;;
22334;SDS011;11335;43.848;25.958;2023-06-24T08:48:06;14.38;;;8.30;;
22334;SDS011;11335;43.848;25.958;2023-06-24T08:50:52;10.43;;;7.28;;
22334;SDS011;11335;43.848;25.958;2023-06-24T08:53:43;11.07;;;6.78;;
22334;SDS011;11335;43.848;25.958;2023-06-24T08:56:30;8.73;;;5.90;;
22334;SDS011;11335;43.848;25.958;2023-06-24T08:59:15;14.98;;;5.32;;
22334;SDS011;11335;43.848;25.958;2023-06-24T09:02:05;8.10;;;5.30;;
22334;SDS011;11335;43.848;25.958;2023-06-24T09:04:52;13.13;;;5.90;;
22334;SDS011;11335;43.848;25.958;2023-06-24T09:07:37;9.90;;;4.75;;
22334;SDS011;11335;43.848;25.958;2023-06-24T09:10:33;6.30;;;4.75;;
22334;SDS011;11335;43.848;25.958;2023-06-24T09:13:20;16.35;;;5.20;;
22334;SDS011;11335;43.848;25.958;2023-06-24T09:16:11;8.13;;;5.00;;
22334;SDS011;11335;43.848;25.958;2023-06-24T09:18:59;13.70;;;5.05;;
22334;SDS011;11335;43.848;25.958;2023-06-24T09:21:45;5.55;;;5.05;;
22334;SDS011;11335;43.848;25.958;2023-06-24T09:24:32;9.50;;;5.07;;
22334;SDS011;11335;43.848;25.958;2023-06-24T09:27:21;6.82;;;5.00;;
22334;SDS011;11335;43.848;25.958;2023-06-24T09:30:19;5.38;;;4.70;;
22334;SDS011;11335;43.848;25.958;2023-06-24T09:33:10;5.70;;;5.10;;
22334;SDS011;11335;43.848;25.958;2023-06-24T09:35:56;5.75;;;5.07;;
22334;SDS011;11335;43.848;25.958;2023-06-24T09:38:42;7.35;;;5.00;;
22334;SDS011;11335;43.848;25.958;2023-06-24T09:41:31;10.00;;;5.00;;
22334;SDS011;11335;43.848;25.958;2023-06-24T09:44:17;9.45;;;5.20;;
22334;SDS011;11335;43.848;25.958;2023-06-24T09:47:06;7.72;;;4.50;;
22334;SDS011;11335;43.848;25.958;2023-06-24T09:49:53;5.63;;;4.95;;
22334;SDS011;11335;43.848;25.958;2023-06-24T09:52:39;23.48;;;5.53;;
22334;SDS011;11335;43.848;25.958;2023-06-24T09:55:25;6.90;;;4.78;;
22334;SDS011;11335;43.848;25.958;2023-06-24T09:58:13;11.95;;;4.75;;
22334;SDS011;11335;43.848;25.958;2023-06-24T10:01:02;8.35;;;4.60;;
22334;SDS011;11335;43.848;25.958;2023-06-24T10:03:49;5.97;;;4.97;;
22334;SDS011;11335;43.848;25.958;2023-06-24T10:06:35;8.10;;;4.93;;
22334;SDS011;11335;43.848;25.958;2023-06-24T10:09:21;6.60;;;5.32;;
22334;SDS011;11335;43.848;25.958;2023-06-24T10:12:07;8.23;;;5.00;;
22334;SDS011;11335;43.848;25.958;2023-06-24T10:14:53;6.20;;;5.07;;
22334;SDS011;11335;43.848;25.958;2023-06-24T10:17:39;10.02;;;5.50;;
22334;SDS011;11335;43.848;25.958;2023-06-24T10:20:25;9.52;;;5.43;;
22334;SDS011;11335;43.848;25.958;2023-06-24T10:23:11;7.03;;;5.60;;
22334;SDS011;11335;43.848;25.958;2023-06-24T10:25:57;9.00;;;5.45;;
22334;SDS011;11335;43.848;25.958;2023-06-24T10:31:50;9.02;;;5.38;;
22334;SDS011;11335;43.848;25.958;2023-06-24T10:37:23;7.22;;;5.70;;
22334;SDS011;11335;43.848;25.958;2023-06-24T10:40:10;16.52;;;6.15;;
22334;SDS011;11335;43.848;25.958;2023-06-24T10:42:56;7.97;;;6.03;;
22334;SDS011;11335;43.848;25.958;2023-06-24T10:45:48;12.80;;;6.10;;
22334;SDS011;11335;43.848;25.958;2023-06-24T10:48:35;12.25;;;5.93;;
22334;SDS011;11335;43.848;25.958;2023-06-24T10:51:20;12.60;;;6.35;;
22334;SDS011;11335;43.848;25.958;2023-06-24T10:54:06;7.43;;;6.07;;
22334;SDS011;11335;43.848;25.958;2023-06-24T10:56:52;6.70;;;6.10;;
22334;SDS011;11335;43.848;25.958;2023-06-24T10:59:41;7.15;;;6.45;;
22334;SDS011;11335;43.848;25.958;2023-06-24T11:02:28;11.52;;;6.57;;
22334;SDS011;11335;43.848;25.958;2023-06-24T11:05:13;10.18;;;6.25;;
22334;SDS011;11335;43.848;25.958;2023-06-24T11:07:59;13.13;;;6.13;;
22334;SDS011;11335;43.848;25.958;2023-06-24T11:10:45;9.85;;;6.38;;
22334;SDS011;11335;43.848;25.958;2023-06-24T11:13:33;13.52;;;6.20;;
22334;SDS011;11335;43.848;25.958;2023-06-24T11:16:22;8.40;;;6.10;;
22334;SDS011;11335;43.848;25.958;2023-06-24T11:19:07;7.78;;;6.05;;
22334;SDS011;11335;43.848;25.958;2023-06-24T11:21:53;21.15;;;10.35;;
22334;SDS011;11335;43.848;25.958;2023-06-24T11:24:40;9.65;;;6.13;;
22334;SDS011;11335;43.848;25.958;2023-06-24T11:27:30;13.27;;;6.05;;
22334;SDS011;11335;43.848;25.958;2023-06-24T11:30:16;8.05;;;5.57;;
22334;SDS011;11335;43.848;25.958;2023-06-24T11:33:02;9.27;;;6.63;;
22334;SDS011;11335;43.848;25.958;2023-06-24T11:35:48;10.25;;;6.35;;
22334;SDS011;11335;43.848;25.958;2023-06-24T11:38:34;10.93;;;6.03;;
22334;SDS011;11335;43.848;25.958;2023-06-24T11:41:21;7.82;;;5.85;;
22334;SDS011;11335;43.848;25.958;2023-06-24T11:44:08;7.43;;;6.15;;
22334;SDS011;11335;43.848;25.958;2023-06-24T11:47:02;9.35;;;6.20;;
22334;SDS011;11335;43.848;25.958;2023-06-24T11:49:54;8.52;;;6.25;;
22334;SDS011;11335;43.848;25.958;2023-06-24T11:52:42;6.70;;;6.03;;
22334;SDS011;11335;43.848;25.958;2023-06-24T11:55:30;7.43;;;5.93;;
22334;SDS011;11335;43.848;25.958;2023-06-24T11:58:19;7.95;;;6.13;;
22334;SDS011;11335;43.848;25.958;2023-06-24T12:01:08;10.38;;;6.15;;
22334;SDS011;11335;43.848;25.958;2023-06-24T12:03:54;7.70;;;5.95;;
22334;SDS011;11335;43.848;25.958;2023-06-24T12:06:40;11.85;;;6.15;;
22334;SDS011;11335;43.848;25.958;2023-06-24T12:09:27;7.78;;;6.03;;
22334;SDS011;11335;43.848;25.958;2023-06-24T12:12:14;10.35;;;6.28;;
22334;SDS011;11335;43.848;25.958;2023-06-24T12:15:00;7.72;;;5.80;;
22334;SDS011;11335;43.848;25.958;2023-06-24T12:17:46;9.30;;;5.63;;
22334;SDS011;11335;43.848;25.958;2023-06-24T12:20:31;9.80;;;6.05;;
22334;SDS011;11335;43.848;25.958;2023-06-24T12:23:18;6.68;;;6.05;;
22334;SDS011;11335;43.848;25.958;2023-06-24T12:26:03;9.70;;;5.85;;
22334;SDS011;11335;43.848;25.958;2023-06-24T12:28:49;7.18;;;6.20;;
22334;SDS011;11335;43.848;25.958;2023-06-24T12:31:35;8.98;;;6.07;;
22334;SDS011;11335;43.848;25.958;2023-06-24T12:34:21;7.97;;;6.13;;
22334;SDS011;11335;43.848;25.958;2023-06-24T12:37:06;11.57;;;6.50;;
22334;SDS011;11335;43.848;25.958;2023-06-24T12:39:52;8.25;;;5.82;;
22334;SDS011;11335;43.848;25.958;2023-06-24T12:42:38;8.35;;;5.55;;
22334;SDS011;11335;43.848;25.958;2023-06-24T12:45:24;8.48;;;5.88;;
22334;SDS011;11335;43.848;25.958;2023-06-24T12:48:10;10.35;;;6.18;;
22334;SDS011;11335;43.848;25.958;2023-06-24T12:50:56;10.20;;;5.90;;
22334;SDS011;11335;43.848;25.958;2023-06-24T12:53:41;17.08;;;6.45;;
22334;SDS011;11335;43.848;25.958;2023-06-24T12:56:27;6.93;;;5.90;;
22334;SDS011;11335;43.848;25.958;2023-06-24T12:59:13;8.05;;;5.82;;
22334;SDS011;11335;43.848;25.958;2023-06-24T13:01:58;9.25;;;6.45;;
22334;SDS011;11335;43.848;25.958;2023-06-24T13:04:44;7.45;;;5.55;;
22334;SDS011;11335;43.848;25.958;2023-06-24T13:07:30;11.88;;;6.55;;
22334;SDS011;11335;43.848;25.958;2023-06-24T13:10:16;12.07;;;5.65;;
22334;SDS011;11335;43.848;25.958;2023-06-24T13:13:02;9.88;;;5.72;;
22334;SDS011;11335;43.848;25.958;2023-06-24T13:15:48;6.60;;;5.75;;
22334;SDS011;11335;43.848;25.958;2023-06-24T13:18:33;6.57;;;5.90;;
22334;SDS011;11335;43.848;25.958;2023-06-24T13:21:19;7.88;;;6.10;;
22334;SDS011;11335;43.848;25.958;2023-06-24T13:24:05;6.68;;;5.95;;
22334;SDS011;11335;43.848;25.958;2023-06-24T13:26:51;7.05;;;6.32;;
22334;SDS011;11335;43.848;25.958;2023-06-24T13:29:37;10.88;;;6.00;;
22334;SDS011;11335;43.848;25.958;2023-06-24T13:32:23;8.88;;;5.32;;
22334;SDS011;11335;43.848;25.958;2023-06-24T13:35:08;6.57;;;5.90;;
22334;SDS011;11335;43.848;25.958;2023-06-24T13:37:54;7.00;;;6.07;;
22334;SDS011;11335;43.848;25.958;2023-06-24T13:40:40;6.40;;;5.60;;
22334;SDS011;11335;43.848;25.958;2023-06-24T13:43:26;7.18;;;5.95;;
22334;SDS011;11335;43.848;25.958;2023-06-24T13:46:11;7.68;;;6.13;;
22334;SDS011;11335;43.848;25.958;2023-06-24T13:48:57;10.05;;;6.43;;
22334;SDS011;11335;43.848;25.958;2023-06-24T13:51:44;6.85;;;6.15;;
22334;SDS011;11335;43.848;25.958;2023-06-24T13:54:30;9.75;;;6.10;;
22334;SDS011;11335;43.848;25.958;2023-06-24T13:57:18;10.85;;;6.20;;
22334;SDS011;11335;43.848;25.958;2023-06-24T14:00:04;7.93;;;5.93;;
22334;SDS011;11335;43.848;25.958;2023-06-24T14:02:50;10.15;;;6.00;;
22334;SDS011;11335;43.848;25.958;2023-06-24T14:05:35;14.00;;;6.20;;
22334;SDS011;11335;43.848;25.958;2023-06-24T14:08:21;8.45;;;5.93;;
22334;SDS011;11335;43.848;25.958;2023-06-24T14:11:07;10.25;;;5.30;;
22334;SDS011;11335;43.848;25.958;2023-06-24T14:13:53;7.53;;;5.38;;
22334;SDS011;11335;43.848;25.958;2023-06-24T14:16:39;6.15;;;5.53;;
22334;SDS011;11335;43.848;25.958;2023-06-24T14:19:24;5.95;;;5.35;;
22334;SDS011;11335;43.848;25.958;2023-06-24T14:22:10;9.90;;;6.38;;
22334;SDS011;11335;43.848;25.958;2023-06-24T14:24:56;6.25;;;5.43;;
22334;SDS011;11335;43.848;25.958;2023-06-24T14:27:41;9.73;;;5.60;;
22334;SDS011;11335;43.848;25.958;2023-06-24T14:30:27;7.85;;;5.50;;
22334;SDS011;11335;43.848;25.958;2023-06-24T14:33:13;8.38;;;5.28;;
22334;SDS011;11335;43.848;25.958;2023-06-24T14:35:59;10.13;;;5.38;;
22334;SDS011;11335;43.848;25.958;2023-06-24T14:38:45;13.00;;;5.65;;
22334;SDS011;11335;43.848;25.958;2023-06-24T14:41:31;8.10;;;5.50;;
22334;SDS011;11335;43.848;25.958;2023-06-24T14:44:17;8.73;;;5.65;;
22334;SDS011;11335;43.848;25.958;2023-06-24T14:47:03;7.63;;;5.80;;
22334;SDS011;11335;43.848;25.958;2023-06-24T14:49:49;11.75;;;5.22;;
22334;SDS011;11335;43.848;25.958;2023-06-24T14:52:34;7.22;;;5.63;;
22334;SDS011;11335;43.848;25.958;2023-06-24T14:55:20;6.30;;;5.38;;
22334;SDS011;11335;43.848;25.958;2023-06-24T14:58:06;6.05;;;5.45;;
22334;SDS011;11335;43.848;25.958;2023-06-24T15:00:52;6.53;;;5.38;;
22334;SDS011;11335;43.848;25.958;2023-06-24T15:03:38;6.72;;;5.70;;
22334;SDS011;11335;43.848;25.958;2023-06-24T15:06:23;7.45;;;5.20;;
22334;SDS011;11335;43.848;25.958;2023-06-24T15:09:09;18.27;;;5.70;;
22334;SDS011;11335;43.848;25.958;2023-06-24T15:11:55;12.20;;;5.20;;
22334;SDS011;11335;43.848;25.958;2023-06-24T15:14:41;7.30;;;5.10;;
22334;SDS011;11335;43.848;25.958;2023-06-24T15:17:28;6.63;;;4.70;;
22334;SDS011;11335;43.848;25.958;2023-06-24T15:20:15;9.48;;;5.10;;
22334;SDS011;11335;43.848;25.958;2023-06-24T15:23:01;6.68;;;5.30;;
22334;SDS011;11335;43.848;25.958;2023-06-24T15:25:47;6.55;;;5.10;;
22334;SDS011;11335;43.848;25.958;2023-06-24T15:28:35;9.82;;;5.78;;
22334;SDS011;11335;43.848;25.958;2023-06-24T15:31:21;5.32;;;4.75;;
22334;SDS011;11335;43.848;25.958;2023-06-24T15:34:07;10.00;;;5.20;;
22334;SDS011;11335;43.848;25.958;2023-06-24T15:36:53;6.90;;;5.93;;
22334;SDS011;11335;43.848;25.958;2023-06-24T15:39:38;6.43;;;5.10;;
22334;SDS011;11335;43.848;25.958;2023-06-24T15:42:24;6.40;;;5.65;;
22334;SDS011;11335;43.848;25.958;2023-06-24T15:45:11;10.32;;;5.00;;
22334;SDS011;11335;43.848;25.958;2023-06-24T15:47:57;10.75;;;6.22;;
22334;SDS011;11335;43.848;25.958;2023-06-24T15:50:42;6.22;;;5.30;;
22334;SDS011;11335;43.848;25.958;2023-06-24T15:53:28;11.98;;;5.00;;
22334;SDS011;11335;43.848;25.958;2023-06-24T15:56:14;7.80;;;4.82;;
22334;SDS011;11335;43.848;25.958;2023-06-24T15:59:00;8.45;;;5.20;;
22334;SDS011;11335;43.848;25.958;2023-06-24T16:01:45;8.35;;;4.97;;
22334;SDS011;11335;43.848;25.958;2023-06-24T16:04:31;8.65;;;5.50;;
22334;SDS011;11335;43.848;25.958;2023-06-24T16:07:17;9.32;;;6.60;;
22334;SDS011;11335;43.848;25.958;2023-06-24T16:10:03;23.05;;;8.40;;
22334;SDS011;11335;43.848;25.958;2023-06-24T16:12:49;21.02;;;12.98;;
22334;SDS011;11335;43.848;25.958;2023-06-24T16:15:35;8.82;;;4.65;;
22334;SDS011;11335;43.848;25.958;2023-06-24T16:18:21;9.82;;;5.50;;
22334;SDS011;11335;43.848;25.958;2023-06-24T16:21:06;12.40;;;5.53;;
22334;SDS011;11335;43.848;25.958;2023-06-24T16:23:52;8.32;;;5.45;;
22334;SDS011;11335;43.848;25.958;2023-06-24T16:26:38;7.55;;;4.95;;
22334;SDS011;11335;43.848;25.958;2023-06-24T16:29:24;9.68;;;4.63;;
22334;SDS011;11335;43.848;25.958;2023-06-24T16:32:09;8.40;;;5.07;;
22334;SDS011;11335;43.848;25.958;2023-06-24T16:34:55;7.75;;;4.90;;
22334;SDS011;11335;43.848;25.958;2023-06-24T16:37:41;8.00;;;5.35;;
22334;SDS011;11335;43.848;25.958;2023-06-24T16:40:26;7.97;;;5.43;;